Rina Amoretti — IBRR — position and weather

sailwx.info

Track history (hours):
 
Tides and Currents Weather Stations Pressure Air Temp Water Temp Dewpoint Dewpoint Depression Visibility Wind Speed Wind Dir Waves Ship Positions

Rina Amoretti

Last reported at 2015-Jul-06 06:34 UTC. Time now 2015-Jul-06 07:10 UTC.
Position N 38°07' E 013°27'.

Length 120 m; draft 7.4 m.

Type: Ship (hazmat cat A). MMSI: 247197000.

Date/timePositionNaut miles runAvg speedWind from/ knotsBaromVisibWave heightAir tempDewpointWater temp
2015-Jul-06 06:34N 38°07' E 013°27'1 0.5
2015-Jul-06 05:33N 38°07' E 013°27'1312.0
2015-Jul-06 04:28N 38°10' E 013°43'3013.4
2015-Jul-06 02:15N 38°14' E 014°21'1013.7
2015-Jul-06 01:33N 38°15' E 014°33'1514.6
2015-Jul-06 00:33N 38°16' E 014°52'1414.5
2015-Jul-05 23:33N 38°18' E 015°10'1514.5
2015-Jul-05 22:34N 38°19' E 015°28'1110.9
2015-Jul-05 21:33N 38°16' E 015°42'1313.4
2015-Jul-05 20:33N 38°04' E 015°35'1414.3
2015-Jul-05 19:34N 37°50' E 015°30'1414.2
2015-Jul-05 18:33N 37°36' E 015°26'1414.4
2015-Jul-05 17:34N 37°22' E 015°21'12 2.3
2015-Jul-05 12:13N 37°12' E 015°12'1 0.7
2015-Jul-05 11:27N 37°13' E 015°12'6 0.2
2015-Jul-03 22:33N 37°15' E 015°19'1514.8
2015-Jul-03 21:33N 37°30' E 015°23'1514.7
2015-Jul-03 20:33N 37°44' E 015°27'1514.7
2015-Jul-03 19:33N 37°58' E 015°32'1414.2
2015-Jul-03 18:34N 38°12' E 015°36'1111.0
2015-Jul-03 17:33N 38°23' E 015°38'1514.8
2015-Jul-03 16:34N 38°36' E 015°31'1515.0
2015-Jul-03 15:33N 38°50' E 015°23'1514.8
2015-Jul-03 14:33N 39°03' E 015°14'1414.5
2015-Jul-03 13:33N 39°15' E 015°05'1514.8
2015-Jul-03 12:33N 39°28' E 014°55'1515.2
2015-Jul-03 11:33N 39°42' E 014°45'1515.3
2015-Jul-03 10:34N 39°55' E 014°36'1514.9
2015-Jul-03 09:33N 40°08' E 014°26'1514.6
2015-Jul-03 08:33N 40°20' E 014°16'1414.3
2015-Jul-03 07:33N 40°33' E 014°09'1414.4
2015-Jul-03 06:33N 40°46' E 014°17'4 3.7
2015-Jul-03 05:31N 40°50' E 014°18'0 0.0
2015-Jul-03 04:31N 40°50' E 014°18'0 0.0
2015-Jul-03 03:31N 40°50' E 014°18'0 0.0
2015-Jul-02 21:07N 40°50' E 014°18'0 0.0
2015-Jul-02 19:31N 40°50' E 014°18'0 0.0
2015-Jul-02 17:31N 40°50' E 014°18'0 0.0
2015-Jul-02 16:25N 40°50' E 014°18'0 0.0
2015-Jul-02 15:07N 40°50' E 014°18'0 0.0
2015-Jul-02 14:24N 40°50' E 014°18'0 0.0
2015-Jul-02 13:33N 40°50' E 014°18'0 0.0
2015-Jul-02 12:33N 40°50' E 014°18'0 0.0
2015-Jul-02 11:33N 40°50' E 014°18'0 0.0
2015-Jul-02 10:15N 40°50' E 014°18'0 0.0
2015-Jul-02 09:33N 40°50' E 014°18'0 0.0
2015-Jul-02 08:33N 40°50' E 014°18'0 0.1
2015-Jul-02 07:22N 40°50' E 014°17'2 2.6
2015-Jul-02 06:33N 40°48' E 014°18'8 8.0
2015-Jul-02 05:33N 40°41' E 014°13'1312.6
2015-Jul-02 04:33N 40°28' E 014°10'1414.2
2015-Jul-02 03:34N 40°16' E 014°20'1614.3
2015-Jul-02 02:25N 40°02' E 014°30'7214.1
2015-Jul-01 21:19N 38°60' E 015°16'1114.1
2015-Jul-01 20:32N 38°50' E 015°23'1414.2
2015-Jul-01 19:32N 38°37' E 015°31'1414.2
2015-Jul-01 18:33N 38°24' E 015°39'1110.7
2015-Jul-01 17:33N 38°14' E 015°38'1514.6
2015-Jul-01 16:33N 37°60' E 015°33'1414.3
2015-Jul-01 15:33N 37°46' E 015°29'1414.2
2015-Jul-01 14:33N 37°32' E 015°24'1614.5
2015-Jul-01 13:26N 37°16' E 015°19'  
2015-Jun-28 09:15N 37°22' E 015°21'1013.8
2015-Jun-28 08:32N 37°31' E 015°23'1413.8
2015-Jun-28 07:33N 37°44' E 015°27'1414.0
2015-Jun-28 06:33N 37°58' E 015°32'1313.2
2015-Jun-28 05:33N 38°11' E 015°35'9 9.3
2015-Jun-28 04:33N 38°20' E 015°35'1313.5
2015-Jun-28 03:33N 38°19' E 015°18'1313.0
2015-Jun-28 02:33N 38°17' E 015°01'1312.5
2015-Jun-28 01:33N 38°16' E 014°45'1312.5
2015-Jun-28 00:32N 38°15' E 014°29'1312.9
2015-Jun-27 23:33N 38°13' E 014°13'1312.8
2015-Jun-27 22:31N 38°12' E 013°57'1212.6
2015-Jun-27 21:33N 38°11' E 013°41'1212.1
2015-Jun-27 20:33N 38°07' E 013°27'1 0.9
2015-Jun-27 19:33N 38°06' E 013°26'0 0.0
2015-Jun-27 18:33N 38°06' E 013°26'0 0.0
2015-Jun-27 17:33N 38°06' E 013°26'0 0.0
2015-Jun-27 16:33N 38°06' E 013°26'0 0.0
2015-Jun-27 15:33N 38°06' E 013°26'0 0.0
2015-Jun-27 14:33N 38°06' E 013°26'0 0.0
2015-Jun-27 13:33N 38°06' E 013°26'0 0.0
2015-Jun-27 12:33N 38°06' E 013°26'0 0.0
2015-Jun-27 11:33N 38°06' E 013°26'0 0.0
2015-Jun-27 10:33N 38°06' E 013°26'0 0.0
2015-Jun-27 09:33N 38°06' E 013°26'0 0.0
2015-Jun-27 08:33N 38°06' E 013°26'0 0.0
2015-Jun-27 07:33N 38°06' E 013°26'0 0.0
2015-Jun-27 06:30N 38°06' E 013°26'1 1.2
2015-Jun-27 05:33N 38°07' E 013°27'1 0.9
2015-Jun-27 04:33N 38°07' E 013°26'0 0.0
2015-Jun-27 03:33N 38°07' E 013°26'0 0.0
2015-Jun-27 02:33N 38°07' E 013°26'0 0.0
2015-Jun-27 01:33N 38°07' E 013°26'0 0.0
2015-Jun-27 00:33N 38°07' E 013°26'0 0.0
2015-Jun-26 23:33N 38°07' E 013°26'0 0.0
2015-Jun-26 22:33N 38°07' E 013°26'0 0.0
2015-Jun-26 21:30N 38°07' E 013°26'0 0.0
2015-Jun-26 20:33N 38°07' E 013°26'0 0.0
2015-Jun-26 19:30N 38°07' E 013°26'0 0.0
2015-Jun-26 18:33N 38°07' E 013°26'0 0.0
2015-Jun-26 17:30N 38°07' E 013°26'0 0.0
2015-Jun-26 16:33N 38°07' E 013°26'0 0.0
2015-Jun-26 15:33N 38°07' E 013°26'0 0.0
2015-Jun-26 14:33N 38°07' E 013°26'0 0.0
2015-Jun-26 13:32N 38°07' E 013°26'0 0.0
2015-Jun-26 12:32N 38°07' E 013°26'0 0.0
2015-Jun-26 11:32N 38°07' E 013°26'0 0.0
2015-Jun-26 10:29N 38°07' E 013°26'0 0.0
2015-Jun-26 09:32N 38°07' E 013°26'0 0.0
2015-Jun-26 08:32N 38°07' E 013°26'0 0.0
2015-Jun-26 07:33N 38°07' E 013°26'  
Track history (hours):
 
Tides and Currents Weather Stations Pressure Air Temp Water Temp Dewpoint Dewpoint Depression Visibility Wind Speed Wind Dir Waves Ship Positions

Rina Amoretti

Last reported at 2015-Jul-06 06:34 UTC. Time now 2015-Jul-06 07:10 UTC.
Position N 38°07' E 013°27'.

Length 120 m; draft 7.4 m.

Type: Ship (hazmat cat A). MMSI: 247197000.

Date/timePositionNaut miles runAvg speedWind from/ knotsBaromVisibWave heightAir tempDewpointWater temp
2015-Jul-06 06:34N 38°07' E 013°27'1 0.5
2015-Jul-06 05:33N 38°07' E 013°27'1312.0
2015-Jul-06 04:28N 38°10' E 013°43'3013.4
2015-Jul-06 02:15N 38°14' E 014°21'1013.7
2015-Jul-06 01:33N 38°15' E 014°33'1514.6
2015-Jul-06 00:33N 38°16' E 014°52'1414.5
2015-Jul-05 23:33N 38°18' E 015°10'1514.5
2015-Jul-05 22:34N 38°19' E 015°28'1110.9
2015-Jul-05 21:33N 38°16' E 015°42'1313.4
2015-Jul-05 20:33N 38°04' E 015°35'1414.3
2015-Jul-05 19:34N 37°50' E 015°30'1414.2
2015-Jul-05 18:33N 37°36' E 015°26'1414.4
2015-Jul-05 17:34N 37°22' E 015°21'12 2.3
2015-Jul-05 12:13N 37°12' E 015°12'1 0.7
2015-Jul-05 11:27N 37°13' E 015°12'6 0.2
2015-Jul-03 22:33N 37°15' E 015°19'1514.8
2015-Jul-03 21:33N 37°30' E 015°23'1514.7
2015-Jul-03 20:33N 37°44' E 015°27'1514.7
2015-Jul-03 19:33N 37°58' E 015°32'1414.2
2015-Jul-03 18:34N 38°12' E 015°36'1111.0
2015-Jul-03 17:33N 38°23' E 015°38'1514.8
2015-Jul-03 16:34N 38°36' E 015°31'1515.0
2015-Jul-03 15:33N 38°50' E 015°23'1514.8
2015-Jul-03 14:33N 39°03' E 015°14'1414.5
2015-Jul-03 13:33N 39°15' E 015°05'1514.8
2015-Jul-03 12:33N 39°28' E 014°55'1515.2
2015-Jul-03 11:33N 39°42' E 014°45'1515.3
2015-Jul-03 10:34N 39°55' E 014°36'1514.9
2015-Jul-03 09:33N 40°08' E 014°26'1514.6
2015-Jul-03 08:33N 40°20' E 014°16'1414.3
2015-Jul-03 07:33N 40°33' E 014°09'1414.4
2015-Jul-03 06:33N 40°46' E 014°17'4 3.7
2015-Jul-03 05:31N 40°50' E 014°18'0 0.0
2015-Jul-03 04:31N 40°50' E 014°18'0 0.0
2015-Jul-03 03:31N 40°50' E 014°18'0 0.0
2015-Jul-02 21:07N 40°50' E 014°18'0 0.0
2015-Jul-02 19:31N 40°50' E 014°18'0 0.0
2015-Jul-02 17:31N 40°50' E 014°18'0 0.0
2015-Jul-02 16:25N 40°50' E 014°18'0 0.0
2015-Jul-02 15:07N 40°50' E 014°18'0 0.0
2015-Jul-02 14:24N 40°50' E 014°18'0 0.0
2015-Jul-02 13:33N 40°50' E 014°18'0 0.0
2015-Jul-02 12:33N 40°50' E 014°18'0 0.0
2015-Jul-02 11:33N 40°50' E 014°18'0 0.0
2015-Jul-02 10:15N 40°50' E 014°18'0 0.0
2015-Jul-02 09:33N 40°50' E 014°18'0 0.0
2015-Jul-02 08:33N 40°50' E 014°18'0 0.1
2015-Jul-02 07:22N 40°50' E 014°17'2 2.6
2015-Jul-02 06:33N 40°48' E 014°18'8 8.0
2015-Jul-02 05:33N 40°41' E 014°13'1312.6
2015-Jul-02 04:33N 40°28' E 014°10'1414.2
2015-Jul-02 03:34N 40°16' E 014°20'1614.3
2015-Jul-02 02:25N 40°02' E 014°30'7214.1
2015-Jul-01 21:19N 38°60' E 015°16'1114.1
2015-Jul-01 20:32N 38°50' E 015°23'1414.2
2015-Jul-01 19:32N 38°37' E 015°31'1414.2
2015-Jul-01 18:33N 38°24' E 015°39'1110.7
2015-Jul-01 17:33N 38°14' E 015°38'1514.6
2015-Jul-01 16:33N 37°60' E 015°33'1414.3
2015-Jul-01 15:33N 37°46' E 015°29'1414.2
2015-Jul-01 14:33N 37°32' E 015°24'1614.5
2015-Jul-01 13:26N 37°16' E 015°19'  
2015-Jun-28 09:15N 37°22' E 015°21'1013.8
2015-Jun-28 08:32N 37°31' E 015°23'1413.8
2015-Jun-28 07:33N 37°44' E 015°27'1414.0
2015-Jun-28 06:33N 37°58' E 015°32'1313.2
2015-Jun-28 05:33N 38°11' E 015°35'9 9.3
2015-Jun-28 04:33N 38°20' E 015°35'1313.5
2015-Jun-28 03:33N 38°19' E 015°18'1313.0
2015-Jun-28 02:33N 38°17' E 015°01'1312.5
2015-Jun-28 01:33N 38°16' E 014°45'1312.5
2015-Jun-28 00:32N 38°15' E 014°29'1312.9
2015-Jun-27 23:33N 38°13' E 014°13'1312.8
2015-Jun-27 22:31N 38°12' E 013°57'1212.6
2015-Jun-27 21:33N 38°11' E 013°41'1212.1
2015-Jun-27 20:33N 38°07' E 013°27'1 0.9
2015-Jun-27 19:33N 38°06' E 013°26'0 0.0
2015-Jun-27 18:33N 38°06' E 013°26'0 0.0
2015-Jun-27 17:33N 38°06' E 013°26'0 0.0
2015-Jun-27 16:33N 38°06' E 013°26'0 0.0
2015-Jun-27 15:33N 38°06' E 013°26'0 0.0
2015-Jun-27 14:33N 38°06' E 013°26'0 0.0
2015-Jun-27 13:33N 38°06' E 013°26'0 0.0
2015-Jun-27 12:33N 38°06' E 013°26'0 0.0
2015-Jun-27 11:33N 38°06' E 013°26'0 0.0
2015-Jun-27 10:33N 38°06' E 013°26'0 0.0
2015-Jun-27 09:33N 38°06' E 013°26'0 0.0
2015-Jun-27 08:33N 38°06' E 013°26'0 0.0
2015-Jun-27 07:33N 38°06' E 013°26'0 0.0
2015-Jun-27 06:30N 38°06' E 013°26'1 1.2
2015-Jun-27 05:33N 38°07' E 013°27'1 0.9
2015-Jun-27 04:33N 38°07' E 013°26'0 0.0
2015-Jun-27 03:33N 38°07' E 013°26'0 0.0
2015-Jun-27 02:33N 38°07' E 013°26'0 0.0
2015-Jun-27 01:33N 38°07' E 013°26'0 0.0
2015-Jun-27 00:33N 38°07' E 013°26'0 0.0
2015-Jun-26 23:33N 38°07' E 013°26'0 0.0
2015-Jun-26 22:33N 38°07' E 013°26'0 0.0
2015-Jun-26 21:30N 38°07' E 013°26'0 0.0
2015-Jun-26 20:33N 38°07' E 013°26'0 0.0
2015-Jun-26 19:30N 38°07' E 013°26'0 0.0
2015-Jun-26 18:33N 38°07' E 013°26'0 0.0
2015-Jun-26 17:30N 38°07' E 013°26'0 0.0
2015-Jun-26 16:33N 38°07' E 013°26'0 0.0
2015-Jun-26 15:33N 38°07' E 013°26'0 0.0
2015-Jun-26 14:33N 38°07' E 013°26'0 0.0
2015-Jun-26 13:32N 38°07' E 013°26'0 0.0
2015-Jun-26 12:32N 38°07' E 013°26'0 0.0
2015-Jun-26 11:32N 38°07' E 013°26'0 0.0
2015-Jun-26 10:29N 38°07' E 013°26'0 0.0
2015-Jun-26 09:32N 38°07' E 013°26'0 0.0
2015-Jun-26 08:32N 38°07' E 013°26'0 0.0
2015-Jun-26 07:33N 38°07' E 013°26'  

Dump ship's entire track history